Latest Weather Observations for Lucas Heights

IDN60801

Issued at 1:03 pm EDT Thursday 11 February 2016 (issued every 30 minutes, with the page automatically refreshed every 10 minutes)

About weather observations | Map of weather stations | Latest weather observations for NSW | Other Formats
Station Details ID: 066023 Name: LUCAS HEIGHTS AWS Lat: -34.05 Lon: 150.98 Height: 140.0 m
Data from the previous 72 hours. | See also: Recent months for locations in New South Wales
Date/Time
EDT
Temp
°C
App
Temp
°C
Dew
Point
Rel
Hum
%
Delta-T
°C
Wind Press
QNH
hPa
Press
MSL
hPa
Rain
since 9 am
mm
Dir
 
Spd
km/h
Gust
km/h
Spd
kts
Gust
kts
11/12:45pm 26.3 25.8 17.0 56 5.8 ENE 15 22 8 12 1015.0 - 0.0
11/12:30pm 26.0 25.5 17.0 57 5.6 ENE 15 22 8 12 1015.2 - 0.0
11/12:15pm 25.9 26.3 17.3 59 5.4 ENE 11 24 6 13 1015.3 - 0.0
11/12:00pm 25.5 25.5 17.3 60 5.1 NE 13 22 7 12 1015.3 - 0.0
11/11:45am 25.7 27.1 17.7 61 5.0 NE 7 13 4 7 1015.4 - 0.0
11/11:30am 25.4 26.0 17.7 62 4.9 NE 11 19 6 10 1015.4 - 0.0
11/11:15am 25.7 26.4 17.9 62 4.9 ENE 11 19 6 10 1015.4 - 0.0
11/11:00am 25.0 25.1 17.5 63 4.7 ENE 13 19 7 10 1015.4 - 0.0
11/10:45am 25.0 25.3 17.9 64 4.5 ENE 13 20 7 11 1015.5 - 0.0
11/10:30am 24.3 24.6 17.8 67 4.1 ENE 13 22 7 12 1015.5 - 0.0
11/10:15am 23.8 24.2 17.2 66 4.1 NNE 11 20 6 11 1015.5 - 0.0
11/10:00am 23.9 24.8 17.6 68 3.9 N 9 17 5 9 1015.5 - 0.0
11/09:45am 23.6 24.6 17.8 70 3.6 N 9 17 5 9 1015.6 - 0.0
11/09:30am 23.3 25.0 18.1 72 3.3 NNE 6 11 3 6 1015.6 - 0.0
11/09:15am 22.8 24.5 18.0 74 3.0 NE 6 11 3 6 1015.7 - 0.0
11/09:00am 22.5 24.6 18.2 76 2.7 N 4 7 2 4 1015.6 - 0.0
11/08:45am 22.0 24.6 18.5 80 2.2 E 2 4 1 2 1015.6 - 0.0
11/08:30am 20.8 23.6 17.9 83 1.8 CALM 0 2 0 1 1015.4 - 0.0
11/08:15am 19.8 22.4 17.4 86 1.5 CALM 0 0 0 0 1015.3 - 0.0
11/08:00am 18.7 20.9 16.5 87 1.3 CALM 0 2 0 1 1015.0 - 0.0
11/07:45am 18.2 19.8 15.9 86 1.4 N 2 2 1 1 1014.8 - 0.0
11/07:30am 17.4 18.3 15.2 87 1.3 N 4 6 2 3 1014.5 - 0.0
11/07:15am 16.9 17.3 14.7 87 1.3 NNE 6 7 3 4 1014.2 - 0.0
11/07:00am 16.6 17.3 14.4 87 1.3 NNE 4 6 2 3 1014.1 - 0.0
11/06:45am 16.4 17.0 14.2 87 1.3 NNE 4 6 2 3 1013.9 - 0.0
11/06:30am 16.4 16.6 14.2 87 1.3 NNE 6 7 3 4 1013.7 - 0.0
11/06:15am 16.4 17.4 14.2 87 1.3 NNE 2 4 1 2 1013.8 - 0.0
11/06:00am 16.5 17.9 14.3 87 1.3 CALM 0 2 0 1 1013.7 - 0.0
11/05:45am 16.6 17.6 14.3 86 1.3 NNW 2 4 1 2 1013.5 - 0.0
11/05:30am 16.6 17.6 14.4 87 1.3 N 2 4 1 2 1013.4 - 0.0
11/05:15am 16.8 17.5 14.6 87 1.3 N 4 6 2 3 1013.3 - 0.0
11/05:00am 16.9 17.7 14.7 87 1.3 N 4 7 2 4 1013.1 - 0.0
11/04:45am 17.1 17.9 14.9 87 1.3 N 4 7 2 4 1013.0 - 0.0
11/04:30am 17.1 17.6 14.9 87 1.3 NNW 6 7 3 4 1013.0 - 0.0
11/04:15am 17.3 17.8 15.1 87 1.3 N 6 7 3 4 1013.0 - 0.0
11/04:00am 17.5 17.9 15.2 86 1.3 - 7 9 4 5 1013.0 - 0.0
11/03:45am 17.5 17.9 15.3 87 1.3 N 7 9 4 5 1013.0 - 0.0
11/03:30am 17.7 18.2 15.5 87 1.3 N 7 9 4 5 1013.2 - 0.0
11/03:15am 17.9 18.6 15.6 86 1.4 NNE 6 9 3 5 1013.2 - 0.0
11/03:00am 18.0 18.5 15.6 86 1.4 NNE 7 9 4 5 1013.3 - 0.0
11/02:45am 18.2 18.9 15.7 85 1.5 NNE 6 7 3 4 1013.5 - 0.0
11/02:30am 18.3 19.1 15.8 85 1.5 NNE 6 7 3 4 1013.6 - 0.0
11/02:15am 18.4 19.2 15.8 85 1.5 NNE 6 7 3 4 1013.6 - 0.0
11/02:00am 18.6 19.8 15.8 84 1.7 NE 4 7 2 4 1013.7 - 0.0
11/01:45am 19.0 20.2 16.0 83 1.8 NE 4 6 2 3 1013.8 - 0.0
11/01:30am 19.3 20.0 16.1 82 1.9 NNE 7 11 4 6 1013.8 - 0.0
11/01:15am 19.5 19.8 16.0 80 2.1 NNE 9 13 5 7 1013.8 - 0.0
11/01:00am 19.8 20.2 16.4 81 2.1 NNE 9 15 5 8 1013.9 - 0.0
11/12:45am 19.8 20.2 16.4 81 2.1 NNE 9 15 5 8 1014.1 - 0.0
11/12:30am 20.0 20.4 16.4 80 2.2 N 9 13 5 7 1014.2 - 0.0
11/12:15am 20.4 20.5 16.5 78 2.4 NNE 11 13 6 7 1014.2 - 0.0
11/12:00am 20.6 20.7 16.6 78 2.4 NNE 11 17 6 9 1014.2 - 0.0
 
Date/Time
EDT
Temp
°C
App
Temp
°C
Dew
Point
Rel
Hum
%
Delta-T
°C
Wind Press
QNH
hPa
Press
MSL
hPa
Rain
since 9 am
mm
Dir
 
Spd
km/h
Gust
km/h
Spd
kts
Gust
kts
10/11:45pm 20.5 20.3 16.6 78 2.4 NNE 13 19 7 10 1014.1 - 0.0
10/11:30pm 20.4 20.5 16.4 78 2.4 N 11 19 6 10 1014.0 - 0.0
10/11:15pm 20.8 20.2 16.6 77 2.6 NNE 15 19 8 10 1014.1 - 0.0
10/11:00pm 20.9 21.0 16.6 76 2.6 NNE 11 19 6 10 1014.2 - 0.0
10/10:45pm 21.3 21.1 16.8 75 2.8 NNE 13 17 7 9 1014.2 - 0.0
10/10:30pm 21.3 20.8 16.8 75 2.8 NE 15 19 8 10 1014.1 - 0.0
10/10:15pm 21.7 20.8 16.9 74 2.9 NE 17 22 9 12 1014.0 - 0.0
10/10:00pm 21.8 21.0 17.1 74 2.9 NE 17 24 9 13 1013.8 - 0.0
10/09:45pm 21.9 20.8 17.3 75 2.8 NE 19 24 10 13 1013.7 - 0.0
10/09:30pm 21.9 20.9 17.5 76 2.7 NE 19 28 10 15 1013.6 - 0.0
10/09:15pm 22.0 21.4 17.5 75 2.8 NE 17 24 9 13 1013.5 - 0.0
10/09:00pm 22.2 21.0 17.5 74 2.9 NE 20 32 11 17 1013.4 - 0.0
10/08:45pm 22.3 21.2 17.4 74 3.0 NE 19 26 10 14 1013.3 - 0.0
10/08:30pm 22.6 21.5 17.4 72 3.2 NE 19 26 10 14 1013.1 - 0.0
10/08:15pm 22.8 22.0 17.2 70 3.5 NE 17 24 9 13 1013.0 - 0.0
10/08:00pm 23.3 22.5 17.1 68 3.8 NE 17 24 9 13 1012.8 - 0.0
10/07:45pm 23.8 22.6 17.0 65 4.2 NE 19 24 10 13 1012.5 - 0.0
10/07:30pm 24.2 23.8 17.1 64 4.4 NE 15 24 8 13 1012.3 - 0.0
10/07:15pm 24.7 23.9 17.1 62 4.7 NE 17 22 9 12 1012.1 - 0.0
10/07:00pm 25.0 23.7 16.9 60 5.0 NE 19 28 10 15 1011.9 - 0.0
10/06:45pm 25.4 24.2 17.0 59 5.2 NE 19 26 10 14 1011.7 - 0.0
10/06:30pm 25.9 24.5 17.1 58 5.5 ENE 20 28 11 15 1011.7 - 0.0
10/06:15pm 26.1 24.9 17.0 57 5.7 NE 19 26 10 14 1011.6 - 0.0
10/06:00pm 26.4 25.2 17.0 56 5.9 NE 19 28 10 15 1011.6 - 0.0
10/05:45pm 26.9 25.8 17.2 55 6.1 NE 19 28 10 15 1011.6 - 0.0
10/05:30pm 27.3 25.6 17.2 54 6.4 ENE 22 30 12 16 1011.5 - 0.0
10/05:15pm 27.6 26.2 17.1 52 6.6 ENE 20 28 11 15 1011.5 - 0.0
10/05:00pm 28.0 26.2 16.9 51 7.0 ENE 22 28 12 15 1011.5 - 0.0
10/04:45pm 28.1 26.8 16.9 50 7.0 NE 19 26 10 14 1011.5 - 0.0
10/04:30pm 28.1 26.8 16.7 50 7.1 NE 19 26 10 14 1011.6 - 0.0
10/04:15pm 28.6 27.3 16.9 49 7.4 NE 19 28 10 15 1011.7 - 0.0
10/04:00pm 28.8 27.7 17.2 49 7.3 ENE 19 28 10 15 1011.8 - 0.0
10/03:45pm 28.8 28.1 17.4 50 7.2 ENE 17 24 9 13 1011.9 - 0.0
10/03:30pm 28.7 27.7 16.7 48 7.5 ENE 17 28 9 15 1012.0 - 0.0
10/03:15pm 29.2 29.0 16.6 46 7.9 ENE 13 20 7 11 1012.2 - 0.0
10/03:00pm 28.9 29.3 16.2 46 7.9 ENE 9 17 5 9 1012.4 - 0.0
10/02:45pm 28.4 28.3 16.1 47 7.6 NE 11 24 6 13 1012.7 - 0.0
10/02:30pm 28.1 28.2 16.5 49 7.2 N 11 24 6 13 1012.9 - 0.0
10/02:15pm 27.8 27.8 16.3 49 7.2 N 11 20 6 11 1013.1 - 0.0
10/02:00pm 27.5 27.9 16.3 50 7.0 N 9 19 5 10 1013.4 - 0.0
10/01:45pm 27.0 26.5 15.9 50 6.8 NNE 13 22 7 12 1013.6 - 0.0
10/01:30pm 26.8 26.7 16.0 51 6.7 N 11 20 6 11 1013.6 - 0.0
10/01:15pm 26.7 26.6 16.1 52 6.5 N 11 22 6 12 1013.9 - 0.0
10/01:00pm 26.3 26.0 16.4 54 6.1 N 13 20 7 11 1014.2 - 0.0
10/12:45pm 26.1 26.3 16.7 56 5.8 N 11 19 6 10 1014.5 - 0.0
10/12:30pm 25.8 26.0 16.7 57 5.7 NNW 11 22 6 12 1014.7 - 0.0
10/12:15pm 25.3 25.4 16.5 58 5.4 NW 11 19 6 10 1014.9 - 0.0
10/12:00pm 25.5 26.2 17.0 59 5.3 N 9 19 5 10 1015.2 - 0.0
10/11:45am 24.9 25.1 16.7 60 5.1 N 11 19 6 10 1015.5 - 0.0
10/11:30am 24.6 24.7 16.5 60 5.0 N 11 17 6 9 1015.7 - 0.0
10/11:15am 24.5 24.8 16.9 62 4.7 N 11 22 6 12 1015.9 - 0.0
10/11:00am 24.0 24.3 16.9 64 4.4 NNW 11 19 6 10 1016.0 - 0.0
10/10:45am 23.3 23.1 16.6 66 4.1 NNW 13 24 7 13 1016.1 - 0.0
10/10:30am 23.5 23.8 17.1 67 4.0 NNW 11 22 6 12 1016.2 - 0.0
10/10:15am 23.2 23.5 17.0 68 3.8 NW 11 19 6 10 1016.2 - 0.0
10/10:00am 22.9 23.7 17.3 70 3.5 NW 9 19 5 10 1016.3 - 0.0
10/09:45am 22.1 22.1 17.1 73 3.1 NW 13 19 7 10 1016.4 - 0.0
10/09:30am 21.9 22.5 17.6 76 2.7 NW 11 17 6 9 1016.5 - 0.0
10/09:15am 21.4 22.3 17.5 78 2.4 NW 9 17 5 9 1016.4 - 0.0
10/09:00am 21.1 22.0 17.5 80 2.2 WNW 9 13 5 7 1016.5 - 0.0
10/08:45am 20.6 21.8 17.4 82 2.0 WNW 7 11 4 6 1016.4 - 0.0
10/08:30am 20.3 21.4 17.2 82 1.9 WNW 7 11 4 6 1016.4 - 0.0
10/08:15am 20.2 21.6 17.4 84 1.7 WNW 6 9 3 5 1016.3 - 0.0
10/08:00am 19.8 21.1 17.5 86 1.4 W 7 11 4 6 1016.3 - 0.0
10/07:45am 18.7 19.2 16.5 87 1.3 WNW 9 11 5 6 1016.2 - 0.0
10/07:30am 17.6 18.0 15.3 86 1.4 WNW 7 11 4 6 1016.2 - 0.0
10/07:15am 17.1 17.3 14.8 86 1.3 WNW 7 11 4 6 1016.1 - 0.0
10/07:00am 16.8 17.0 14.6 87 1.3 W 7 9 4 5 1016.1 - 0.0
10/06:45am 16.8 17.0 14.6 87 1.3 WNW 7 9 4 5 1016.0 - 0.0
10/06:30am 16.7 16.8 14.5 87 1.3 W 7 9 4 5 1015.9 - 0.0
10/06:15am 16.8 17.0 14.6 87 1.3 W 7 9 4 5 1015.8 - 0.0
10/06:00am 17.0 17.2 14.7 86 1.3 W 7 9 4 5 1015.7 - 0.0
10/05:45am 16.2 15.8 14.0 87 1.3 WSW 9 11 5 6 1015.7 - 0.0
10/05:30am 16.4 15.7 14.2 87 1.3 W 11 13 6 7 1015.7 - 0.0
10/05:15am 16.8 16.6 14.6 87 1.3 W 9 11 5 6 1015.6 - 0.0
10/05:00am 17.1 17.4 14.9 87 1.3 W 7 13 4 7 1015.7 - 0.0
10/04:45am 16.9 17.2 14.6 86 1.3 W 6 9 3 5 1015.7 - 0.0
10/04:30am 17.0 17.2 14.8 87 1.3 W 7 9 4 5 1015.8 - 0.0
10/04:15am 16.9 17.3 14.7 87 1.3 W 6 7 3 4 1015.9 - 0.0
10/04:00am 16.8 17.1 14.6 87 1.3 W 6 7 3 4 1015.9 - 0.0
10/03:45am 16.9 17.3 14.7 87 1.3 WNW 6 7 3 4 1016.1 - 0.0
10/03:30am 17.1 17.9 14.9 87 1.3 WNW 4 6 2 3 1016.3 - 0.0
10/03:15am 17.1 17.9 14.9 87 1.3 WNW 4 4 2 2 1016.5 - 0.0
10/03:00am 17.1 17.9 14.9 87 1.3 WNW 4 4 2 2 1016.6 - 0.0
10/02:45am 17.1 17.9 14.9 87 1.3 NW 4 4 2 2 1016.8 - 0.0
10/02:30am 17.2 18.1 15.0 87 1.3 NW 4 6 2 3 1017.0 - 0.0
10/02:15am 17.3 18.5 15.0 86 1.3 NW 2 4 1 2 1017.1 - 0.0
10/02:00am 17.4 19.1 15.2 87 1.3 CALM 0 2 0 1 1017.2 - 0.0
10/01:45am 17.4 19.1 15.2 87 1.3 CALM 0 0 0 0 1017.4 - 0.0
10/01:30am 17.4 19.1 15.2 87 1.3 CALM 0 2 0 1 1017.6 - 0.0
10/01:15am 17.5 19.2 15.2 86 1.3 CALM 0 0 0 0 1017.8 - 0.0
10/01:00am 17.8 19.3 15.6 87 1.3 ESE 2 2 1 1 1018.0 - 0.0
10/12:45am 18.0 19.2 15.8 87 1.3 ESE 4 4 2 2 1018.2 - 0.0
10/12:30am 18.0 19.2 15.8 87 1.3 SE 4 6 2 3 1018.3 - 0.0
10/12:15am 18.1 18.9 15.9 87 1.3 ESE 6 6 3 3 1018.4 - 0.0
10/12:00am 18.2 19.1 16.0 87 1.3 ESE 6 7 3 4 1018.6 - 0.0
 
Date/Time
EDT
Temp
°C
App
Temp
°C
Dew
Point
Rel
Hum
%
Delta-T
°C
Wind Press
QNH
hPa
Press
MSL
hPa
Rain
since 9 am
mm
Dir
 
Spd
km/h
Gust
km/h
Spd
kts
Gust
kts
09/11:45pm 18.3 18.9 15.9 86 1.4 ESE 7 7 4 4 1018.8 - 0.0
09/11:30pm 18.6 19.3 16.2 86 1.4 ESE 7 7 4 4 1019.0 - 0.0
09/11:15pm 18.8 19.6 16.3 85 1.5 ESE 7 7 4 4 1019.1 - 0.0
09/11:00pm 18.8 19.6 16.3 85 1.5 ESE 7 9 4 5 1019.2 - 0.0
09/10:45pm 18.8 19.5 16.1 84 1.6 ESE 7 7 4 4 1019.3 - 0.0
09/10:30pm 19.0 19.7 16.2 84 1.7 SE 7 9 4 5 1019.3 - 0.0
09/10:15pm 19.1 19.5 16.2 83 1.7 SE 9 11 5 6 1019.3 - 0.0
09/10:00pm 19.3 20.1 16.3 83 1.8 SE 7 9 4 5 1019.3 - 0.0
09/09:45pm 19.6 20.4 16.3 81 2.0 SE 7 9 4 5 1019.3 - 0.0
09/09:30pm 20.0 20.9 16.5 80 2.1 SE 7 11 4 6 1019.2 - 0.0
09/09:15pm 20.2 20.7 16.6 80 2.2 SE 9 11 5 6 1019.1 - 0.0
09/09:00pm 20.4 20.6 16.7 79 2.3 ESE 11 13 6 7 1019.0 - 0.0
09/08:45pm 20.6 20.8 16.7 78 2.4 ESE 11 17 6 9 1018.9 - 0.0
09/08:30pm 20.8 20.6 16.7 77 2.5 ESE 13 17 7 9 1018.9 - 0.0
09/08:15pm 21.0 20.8 16.6 76 2.7 ESE 13 19 7 10 1018.9 - 0.0
09/08:00pm 21.3 20.3 16.5 74 2.9 ESE 17 20 9 11 1018.9 - 0.0
09/07:45pm 21.7 21.0 16.4 72 3.2 ESE 15 20 8 11 1018.8 - 0.0
09/07:30pm 22.0 20.7 15.9 68 3.7 ESE 17 22 9 12 1018.6 - 0.0
09/07:15pm 22.4 20.9 15.4 64 4.2 ESE 17 20 9 11 1018.5 - 0.0
09/07:00pm 22.7 22.0 15.5 64 4.3 ESE 13 22 7 12 1018.3 - 0.0
09/06:45pm 22.8 21.4 15.5 63 4.4 SSE 17 26 9 14 1018.2 - 0.0
09/06:30pm 23.2 21.8 15.5 62 4.6 SSE 17 24 9 13 1018.2 - 0.0
09/06:15pm 23.2 21.6 14.9 59 5.0 SSE 17 24 9 13 1018.2 - 0.0
09/06:00pm 23.3 21.1 14.5 57 5.2 SE 19 24 10 13 1018.2 - 0.0
09/05:45pm 23.5 21.5 14.9 58 5.1 ESE 19 24 10 13 1018.2 - 0.0
09/05:30pm 23.9 21.9 15.0 57 5.3 ESE 19 24 10 13 1018.3 - 0.0
09/05:15pm 23.9 22.3 15.0 57 5.3 SE 17 24 9 13 1018.3 - 0.0
09/05:00pm 23.9 22.0 15.1 58 5.3 ESE 19 26 10 14 1018.4 - 0.0
09/04:45pm 24.1 22.2 15.2 57 5.4 ESE 19 30 10 16 1018.6 - 0.0
09/04:30pm 24.1 22.7 15.6 59 5.2 ESE 17 26 9 14 1018.7 - 0.0
09/04:15pm 24.3 22.4 15.7 58 5.2 ESE 20 28 11 15 1018.9 - 0.0
09/04:00pm 24.1 22.3 15.6 59 5.2 SSE 19 28 10 15 1019.0 - 0.0
09/03:45pm 24.0 21.6 14.3 54 5.8 SE 20 30 11 16 1019.2 - 0.0
09/03:30pm 24.4 22.7 14.6 54 5.9 SSE 17 30 9 16 1019.4 - 0.0
09/03:15pm 24.1 21.8 14.7 55 5.6 SE 20 28 11 15 1019.5 - 0.0
09/03:00pm 24.0 21.4 15.0 57 5.4 SE 22 33 12 18 1019.7 - 0.0
09/02:45pm 24.1 21.6 15.2 57 5.4 SE 22 30 12 16 1019.8 - 0.0
09/02:30pm 24.4 22.6 15.6 58 5.3 SE 19 28 10 15 1019.9 - 0.0
09/02:15pm 23.9 21.7 14.9 57 5.4 SE 20 30 11 16 1020.1 - 0.0
09/02:00pm 24.2 22.0 15.0 56 5.5 SE 20 30 11 16 1020.3 - 0.0
09/01:45pm 24.1 22.2 15.1 57 5.4 SSE 19 30 10 16 1020.4 - 0.0
09/01:30pm 24.0 21.9 15.2 58 5.3 SSE 20 33 11 18 1020.4 - 0.0
09/01:15pm 23.5 20.9 14.8 58 5.2 SSE 22 32 12 17 1020.5 - 0.0
09/01:00pm 24.0 21.5 15.2 58 5.3 SSE 22 35 12 19 1020.5 - 0.0
09/12:45pm 24.0 21.9 15.2 58 5.3 SSE 20 33 11 18 1020.6 - 0.0
09/12:30pm 23.8 21.7 15.1 58 5.2 SSE 20 32 11 17 1020.7 - 0.0
09/12:15pm 23.8 20.9 15.2 58 5.2 SSE 24 37 13 20 1020.8 - 0.0
09/12:00pm 23.9 21.5 15.3 58 5.2 SSE 22 33 12 18 1020.9 - 0.0
09/11:45am 24.0 22.2 15.6 59 5.1 SSE 19 33 10 18 1020.9 - 0.0
09/11:30am 23.6 20.9 15.6 61 4.8 SSE 24 37 13 20 1021.0 - 0.0
09/11:15am 23.5 20.4 15.7 61 4.7 SSE 26 41 14 22 1021.0 - 0.0
09/11:00am 23.3 21.5 16.0 63 4.4 SSE 20 37 11 20 1021.1 - 0.0
09/10:45am 22.7 20.0 15.6 64 4.3 SSE 24 39 13 21 1021.2 - 0.0
09/10:30am 22.5 19.3 15.4 64 4.3 SSE 26 37 14 20 1021.2 - 0.0
09/10:15am 23.2 21.6 16.0 64 4.4 SSE 19 30 10 16 1021.0 - 0.0
09/10:00am 22.9 21.1 16.0 65 4.2 SSE 20 32 11 17 1021.0 - 0.0
09/09:45am 22.9 21.2 16.2 66 4.1 SSE 20 37 11 20 1020.9 - 0.0
09/09:30am 22.7 21.2 16.2 66 4.0 S 19 30 10 16 1020.8 - 0.0
09/09:15am 22.1 21.4 16.3 69 3.5 S 15 22 8 12 1020.9 - 0.0
09/09:00am 21.3 20.0 15.8 71 3.3 SSE 17 24 9 13 1020.9 - 0.0
09/08:45am 21.6 20.4 16.1 71 3.3 S 17 22 9 12 1020.7 - 0.0
09/08:30am 21.6 20.4 16.1 71 3.3 SSE 17 22 9 12 1020.5 - 0.0
09/08:15am 21.5 19.9 16.1 71 3.3 SSE 19 24 10 13 1020.4 - 0.0
09/08:00am 20.9 20.0 15.9 73 3.0 S 15 20 8 11 1020.1 - 0.0
09/07:45am 20.2 18.4 15.4 74 2.9 S 19 24 10 13 1020.0 - 0.0
09/07:30am 19.9 18.4 15.3 75 2.7 S 17 24 9 13 1019.9 - 0.0
09/07:15am 19.5 18.3 15.1 76 2.6 S 15 22 8 12 1019.7 - 0.0
09/07:00am 19.4 18.6 15.1 76 2.5 S 13 20 7 11 1019.5 - 0.0
09/06:45am 19.0 18.1 14.8 76 2.5 S 13 20 7 11 1019.3 - 0.0
09/06:30am 18.8 17.4 14.6 76 2.5 SSW 15 20 8 11 1019.1 - 0.0
09/06:15am 18.2 16.6 14.0 76 2.4 SSW 15 17 8 9 1019.1 - 0.0
09/06:00am 17.7 16.3 13.5 76 2.4 SSW 13 15 7 8 1018.9 - 0.0
09/05:45am 17.9 17.0 13.7 76 2.4 S 11 13 6 7 1018.7 - 0.0
09/05:30am 17.9 17.0 13.7 76 2.4 S 11 13 6 7 1018.6 - 0.0
09/05:15am 17.9 17.0 13.8 77 2.3 S 11 13 6 7 1018.7 - 0.0
09/05:00am 18.2 17.4 14.0 76 2.4 S 11 13 6 7 1018.6 - 0.0
09/04:45am 18.2 17.4 14.0 76 2.4 S 11 15 6 8 1018.5 - 0.0
09/04:30am 18.2 17.0 14.0 76 2.4 S 13 15 7 8 1018.6 - 0.0
09/04:15am 18.4 17.3 14.2 76 2.4 S 13 15 7 8 1018.7 - 0.0
09/04:00am 18.7 18.1 14.6 77 2.4 S 11 13 6 7 1018.7 - 0.0
09/03:45am 18.6 17.5 14.4 76 2.4 S 13 17 7 9 1018.8 - 0.0
09/03:30am 18.7 17.7 14.5 76 2.4 S 13 17 7 9 1018.8 - 0.0
09/03:15am 18.5 17.4 14.3 76 2.4 S 13 15 7 8 1018.8 - 0.0
09/03:00am 18.8 18.2 14.6 76 2.5 S 11 17 6 9 1018.9 - 0.0
09/02:45am 18.6 17.5 14.4 76 2.4 S 13 17 7 9 1019.0 - 0.0
09/02:30am 18.5 17.0 14.3 76 2.4 S 15 17 8 9 1019.1 - 0.0
09/02:15am 18.5 17.0 14.3 76 2.4 S 15 19 8 10 1019.1 - 0.0
09/02:00am 18.7 17.7 14.5 76 2.4 S 13 17 7 9 1019.3 - 0.0
09/01:45am 18.8 18.6 14.6 76 2.5 S 9 13 5 7 1019.4 - 0.0
09/01:30am 19.1 19.4 14.9 76 2.5 S 7 9 4 5 1019.5 - 0.0
09/01:15am 19.0 19.2 14.7 76 2.5 S 7 11 4 6 1019.5 - 0.0
09/01:00am 19.2 19.5 15.0 76 2.5 S 7 11 4 6 1019.6 - 0.0
09/12:45am 19.3 19.6 15.0 76 2.5 S 7 9 4 5 1019.6 - 0.0
09/12:30am 19.4 19.7 15.1 76 2.5 S 7 11 4 6 1019.6 - 0.0
09/12:15am 19.6 19.6 15.3 76 2.5 SSE 9 13 5 7 1019.6 - 0.0
09/12:00am 19.9 20.6 15.5 76 2.6 S 6 11 3 6 1019.6 - 0.0
 
Date/Time
EDT
Temp
°C
App
Temp
°C
Dew
Point
Rel
Hum
%
Delta-T
°C
Wind Press
QNH
hPa
Press
MSL
hPa
Rain
since 9 am
mm
Dir
 
Spd
km/h
Gust
km/h
Spd
kts
Gust
kts
08/11:45pm 20.1 20.9 15.8 76 2.6 SSW 6 7 3 4 1019.6 - 0.0
08/11:30pm 19.8 20.5 15.5 76 2.6 SSW 6 9 3 5 1019.7 - 0.0
08/11:15pm 19.7 20.2 15.5 77 2.5 S 7 11 4 6 1019.7 - 0.0
08/11:00pm 19.8 20.3 15.5 76 2.6 S 7 9 4 5 1019.6 - 0.0
08/10:45pm 19.8 20.5 15.5 76 2.6 S 6 7 3 4 1019.7 - 0.0
08/10:30pm 19.8 20.2 15.4 76 2.6 SSE 7 11 4 6 1019.7 - 0.0
08/10:15pm 19.9 19.6 15.4 75 2.7 SSE 11 13 6 7 1019.5 - 0.0
08/10:00pm 20.2 20.3 15.5 74 2.8 SSE 9 13 5 7 1019.2 - 0.0
08/09:45pm 20.5 20.7 15.7 74 2.9 SSE 9 11 5 6 1019.1 - 0.0
08/09:30pm 20.9 21.5 15.9 73 3.0 SSE 7 13 4 7 1019.0 - 0.0
08/09:15pm 21.1 21.0 16.0 72 3.1 SE 11 13 6 7 1018.8 - 0.0
08/09:00pm 21.2 20.7 16.0 72 3.1 ESE 13 17 7 9 1018.6 - 0.0
08/08:45pm 21.4 21.3 16.1 72 3.2 ESE 11 13 6 7 1018.5 - 0.0
08/08:30pm 21.6 21.5 16.1 71 3.3 SE 11 13 6 7 1018.5 - 0.0
08/08:15pm 21.8 21.7 16.0 69 3.5 SE 11 17 6 9 1018.3 - 0.0
08/08:00pm 22.1 21.3 16.0 68 3.7 SE 15 19 8 10 1018.2 - 0.0
08/07:45pm 22.6 22.1 16.0 66 4.0 ESE 13 20 7 11 1018.0 - 0.0
08/07:30pm 23.1 22.2 15.8 63 4.4 ESE 15 22 8 12 1017.8 - 0.0
08/07:15pm 23.5 22.5 15.6 61 4.8 ESE 15 22 8 12 1017.5 - 0.0
08/07:00pm 23.9 23.2 15.5 59 5.1 ESE 13 20 7 11 1017.3 - 0.0
08/06:45pm 24.2 23.2 15.5 58 5.3 ESE 15 19 8 10 1017.2 - 0.0
08/06:30pm 24.7 23.7 15.6 57 5.5 ESE 15 24 8 13 1017.2 - 0.0
08/06:15pm 24.8 23.8 15.5 56 5.7 ESE 15 22 8 12 1017.2 - 0.0
08/06:00pm 24.9 23.9 15.5 56 5.7 ESE 15 24 8 13 1017.2 - 0.0
08/05:45pm 25.2 24.2 15.5 55 5.9 SE 15 22 8 12 1017.3 - 0.0
08/05:30pm 25.4 24.4 15.7 55 5.9 SE 15 22 8 12 1017.4 - 0.0
08/05:15pm 25.6 24.6 15.5 53 6.2 ESE 15 24 8 13 1017.5 - 0.0
08/05:00pm 25.9 25.3 15.6 53 6.3 ESE 13 22 7 12 1017.5 - 0.0
08/04:45pm 26.1 25.1 15.6 52 6.4 ESE 15 22 8 12 1017.5 - 0.0
08/04:30pm 26.4 24.9 15.2 50 6.8 ESE 17 24 9 13 1017.5 - 0.0
08/04:15pm 26.1 24.8 14.9 50 6.8 ESE 15 22 8 12 1017.5 - 0.0
08/04:00pm 26.1 24.9 15.0 50 6.7 ESE 15 22 8 12 1017.6 - 0.0
08/03:45pm 26.3 25.3 15.5 51 6.6 ESE 15 24 8 13 1017.6 - 0.0
08/03:30pm 26.7 25.5 16.0 52 6.6 ESE 17 24 9 13 1017.6 - 0.0
08/03:15pm 26.8 25.8 15.7 50 6.8 ESE 15 22 8 12 1017.7 - 0.0
08/03:00pm 26.9 26.2 15.4 49 7.0 ESE 13 22 7 12 1017.7 - 0.0
08/02:45pm 27.1 26.5 15.7 49 7.0 E 13 22 7 12 1017.8 - 0.0
08/02:30pm 27.0 25.9 15.3 48 7.1 E 15 20 8 11 1017.8 - 0.0
08/02:15pm 26.7 26.2 15.0 48 7.1 ESE 11 22 6 12 1017.9 - 0.0
08/02:00pm 26.9 26.2 15.4 49 7.0 E 13 19 7 10 1018.0 - 0.0
08/01:45pm 26.9 26.3 15.6 50 6.9 E 13 20 7 11 1018.0 - 0.0
08/01:30pm 26.9 26.3 15.6 50 6.9 ENE 13 24 7 13 1018.2 - 0.0
08/01:15pm 26.8 26.5 15.4 49 7.0 ESE 11 17 6 9 1018.3 - 0.0

Other Formats:

Comma delimited format used in spreadsheet applications
http://www.bom.gov.au/fwo/IDN60801/IDN60801.95757.axf

JavaScript Object Notation format (JSON) in row-major order
http://www.bom.gov.au/fwo/IDN60801/IDN60801.95757.json